Ferndale, New York
Current Conditions -  °F | °C
As of 10:55 PM on Saturday 22 Nov 2014 (Local Time) from KMSV Reporting Station
Overcast Overcast  
Wind Chill: 36°   Ceiling: 4200
Heat Index: 36°   Visibility: 10mi
Dew Point: 25°   Wind: 0mph
Humidity: 65%   Direction: NA
Pressure: 30.13"   Gusts: NA
Location:  41.77°N, 74.74°W
Report Text: KMSV 230355Z AUTO 00000KT 10SM BKN042 OVC050 02/M04 A3013 RMK AO1
Loading
Personal Weather Stations






























Interactive Weather Map New forecast layout! Learn more

10-Day Weather Forecast

Advertisements
Track Severe Weather on mobile